sensor_id;sensor_type;location;lat;lon;timestamp;pressure;altitude;pressure_sealevel;temperature;humidity
77979;BME280;67169;50.268;8.694;2023-03-05T06:20:17;99771.91;;;2.33;65.59
77979;BME280;67169;50.268;8.694;2023-03-05T06:22:44;99773.66;;;2.39;64.77
77979;BME280;67169;50.268;8.694;2023-03-05T06:25:11;99771.91;;;2.38;64.54
77979;BME280;67169;50.268;8.694;2023-03-05T06:27:38;99751.63;;;2.23;65.12
77979;BME280;67169;50.268;8.694;2023-03-05T06:30:06;99757.84;;;2.21;65.38
77979;BME280;67169;50.268;8.694;2023-03-05T06:32:33;99777.28;;;2.27;66.05
77979;BME280;67169;50.268;8.694;2023-03-05T06:34:59;99765.75;;;2.31;65.18
77979;BME280;67169;50.268;8.694;2023-03-05T06:37:27;99769.25;;;2.40;64.72
77979;BME280;67169;50.268;8.694;2023-03-05T06:39:54;99770.13;;;2.34;65.42
77979;BME280;67169;50.268;8.694;2023-03-05T06:42:21;99771.06;;;2.28;65.03
77979;BME280;67169;50.268;8.694;2023-03-05T06:44:47;99771.91;;;2.38;64.83
77979;BME280;67169;50.268;8.694;2023-03-05T06:47:14;99771.00;;;2.41;65.35
77979;BME280;67169;50.268;8.694;2023-03-05T06:49:40;99774.50;;;2.49;64.47
77979;BME280;67169;50.268;8.694;2023-03-05T06:52:09;99750.69;;;2.38;64.46
77979;BME280;67169;50.268;8.694;2023-03-05T06:54:38;99777.13;;;2.53;64.59
77979;BME280;67169;50.268;8.694;2023-03-05T06:57:05;99777.19;;;2.46;64.17
77979;BME280;67169;50.268;8.694;2023-03-05T06:59:31;99777.13;;;2.53;63.88
77979;BME280;67169;50.268;8.694;2023-03-05T07:01:58;99780.69;;;2.52;64.40
77979;BME280;67169;50.268;8.694;2023-03-05T07:04:24;99789.53;;;2.53;64.54
77979;BME280;67169;50.268;8.694;2023-03-05T07:06:51;99779.78;;;2.53;65.30
77979;BME280;67169;50.268;8.694;2023-03-05T07:09:18;99785.13;;;2.49;65.52
77979;BME280;67169;50.268;8.694;2023-03-05T07:11:46;99769.25;;;2.40;65.66
77979;BME280;67169;50.268;8.694;2023-03-05T07:14:13;99783.31;;;2.57;65.37
77979;BME280;67169;50.268;8.694;2023-03-05T07:16:39;99771.75;;;2.66;64.58
77979;BME280;67169;50.268;8.694;2023-03-05T07:19:06;99768.28;;;2.56;65.50
77979;BME280;67169;50.268;8.694;2023-03-05T07:21:35;99781.50;;;2.65;65.36
77979;BME280;67169;50.268;8.694;2023-03-05T07:24:03;99782.38;;;2.61;65.98
77979;BME280;67169;50.268;8.694;2023-03-05T07:26:30;99783.28;;;2.60;66.49
77979;BME280;67169;50.268;8.694;2023-03-05T07:28:59;99778.88;;;2.54;67.68
77979;BME280;67169;50.268;8.694;2023-03-05T07:31:26;99779.72;;;2.61;68.30
77979;BME280;67169;50.268;8.694;2023-03-05T07:33:56;99777.03;;;2.70;68.35
77979;BME280;67169;50.268;8.694;2023-03-05T07:36:23;99771.69;;;2.72;69.38
77979;BME280;67169;50.268;8.694;2023-03-05T07:38:50;99776.16;;;2.68;69.55
77979;BME280;67169;50.268;8.694;2023-03-05T07:41:18;99772.59;;;2.71;69.88
77979;BME280;67169;50.268;8.694;2023-03-05T07:43:47;99769.97;;;2.68;70.17
77979;BME280;67169;50.268;8.694;2023-03-05T07:46:18;99769.94;;;2.74;70.15
77979;BME280;67169;50.268;8.694;2023-03-05T07:48:45;99767.31;;;2.69;70.41
77979;BME280;67169;50.268;8.694;2023-03-05T07:51:13;99752.34;;;2.54;70.94
77979;BME280;67169;50.268;8.694;2023-03-05T07:53:40;99762.84;;;2.71;71.09
77979;BME280;67169;50.268;8.694;2023-03-05T07:56:07;99774.34;;;2.76;70.57
77979;BME280;67169;50.268;8.694;2023-03-05T07:58:34;99769.03;;;2.76;70.73
77979;BME280;67169;50.268;8.694;2023-03-05T08:01:01;99764.66;;;2.72;70.30
77979;BME280;67169;50.268;8.694;2023-03-05T08:03:29;99765.47;;;2.77;70.45
77979;BME280;67169;50.268;8.694;2023-03-05T08:05:56;99774.34;;;2.79;70.82
77979;BME280;67169;50.268;8.694;2023-03-05T08:08:22;99762.75;;;2.85;70.75
77979;BME280;67169;50.268;8.694;2023-03-05T08:10:49;99761.00;;;2.84;70.67
77979;BME280;67169;50.268;8.694;2023-03-05T08:13:16;99756.59;;;2.83;70.47
77979;BME280;67169;50.268;8.694;2023-03-05T08:15:42;99726.69;;;2.56;69.40
77979;BME280;67169;50.268;8.694;2023-03-05T08:18:10;99761.00;;;2.84;70.40
77979;BME280;67169;50.268;8.694;2023-03-05T08:20:39;99759.22;;;2.89;70.26
77979;BME280;67169;50.268;8.694;2023-03-05T08:23:06;99751.19;;;2.92;69.67
77979;BME280;67169;50.268;8.694;2023-03-05T08:25:32;99755.63;;;2.92;69.29
77979;BME280;67169;50.268;8.694;2023-03-05T08:27:59;99758.28;;;2.92;69.26
77979;BME280;67169;50.268;8.694;2023-03-05T08:30:25;99757.44;;;2.85;69.07
77979;BME280;67169;50.268;8.694;2023-03-05T08:32:52;99753.00;;;2.89;69.22
77979;BME280;67169;50.268;8.694;2023-03-05T08:35:20;99755.66;;;2.93;68.89
77979;BME280;67169;50.268;8.694;2023-03-05T08:37:48;99747.59;;;3.04;69.26
77979;BME280;67169;50.268;8.694;2023-03-05T08:40:15;99736.94;;;3.07;68.03
77979;BME280;67169;50.268;8.694;2023-03-05T08:42:44;99735.16;;;3.07;67.60
77979;BME280;67169;50.268;8.694;2023-03-05T08:45:11;99733.31;;;3.17;67.92
77979;BME280;67169;50.268;8.694;2023-03-05T08:47:38;99740.31;;;3.27;67.32
77979;BME280;67169;50.268;8.694;2023-03-05T08:50:06;99735.88;;;3.28;67.51
77979;BME280;67169;50.268;8.694;2023-03-05T08:52:32;99719.03;;;3.30;67.36
77979;BME280;67169;50.268;8.694;2023-03-05T08:55:01;99713.50;;;3.49;66.73
77979;BME280;67169;50.268;8.694;2023-03-05T08:57:27;99722.50;;;3.36;65.94
77979;BME280;67169;50.268;8.694;2023-03-05T08:59:54;99718.97;;;3.35;64.80
77979;BME280;67169;50.268;8.694;2023-03-05T09:02:21;99718.81;;;3.52;64.14
77979;BME280;67169;50.268;8.694;2023-03-05T09:04:47;99717.03;;;3.49;64.62
77979;BME280;67169;50.268;8.694;2023-03-05T09:07:14;99724.22;;;3.40;64.43
77979;BME280;67169;50.268;8.694;2023-03-05T09:09:40;99720.63;;;3.44;63.80
77979;BME280;67169;50.268;8.694;2023-03-05T09:12:09;99715.41;;;3.36;62.12
77979;BME280;67169;50.268;8.694;2023-03-05T09:14:37;99710.13;;;3.31;61.92
77979;BME280;67169;50.268;8.694;2023-03-05T09:17:04;99704.78;;;3.38;61.38
77979;BME280;67169;50.268;8.694;2023-03-05T09:19:31;99716.25;;;3.40;61.10
77979;BME280;67169;50.268;8.694;2023-03-05T09:21:57;99701.19;;;3.42;61.54
77979;BME280;67169;50.268;8.694;2023-03-05T09:24:24;99705.53;;;3.47;61.37
77979;BME280;67169;50.268;8.694;2023-03-05T09:26:51;99707.16;;;3.61;61.86
77979;BME280;67169;50.268;8.694;2023-03-05T09:29:19;99707.19;;;3.57;61.64
77979;BME280;67169;50.268;8.694;2023-03-05T09:31:49;99708.97;;;3.59;61.13
77979;BME280;67169;50.268;8.694;2023-03-05T09:34:16;99700.06;;;3.63;60.85
77979;BME280;67169;50.268;8.694;2023-03-05T09:36:43;99703.63;;;3.62;60.99
77979;BME280;67169;50.268;8.694;2023-03-05T09:39:10;99683.31;;;3.53;60.53
77979;BME280;67169;50.268;8.694;2023-03-05T09:42:01;99694.66;;;3.70;60.27
77979;BME280;67169;50.268;8.694;2023-03-05T09:44:37;99705.25;;;3.73;60.21
77979;BME280;67169;50.268;8.694;2023-03-05T09:47:17;99700.72;;;3.81;59.64
77979;BME280;67169;50.268;8.694;2023-03-05T09:49:55;99702.56;;;3.76;58.54
77979;BME280;67169;50.268;8.694;2023-03-05T09:52:32;99691.69;;;3.95;58.94
77979;BME280;67169;50.268;8.694;2023-03-05T09:55:00;99692.47;;;4.04;58.00
77979;BME280;67169;50.268;8.694;2023-03-05T09:57:34;99685.44;;;3.99;58.37
77979;BME280;67169;50.268;8.694;2023-03-05T10:00:06;99664.31;;;3.85;57.69
77979;BME280;67169;50.268;8.694;2023-03-05T10:02:36;99691.66;;;3.99;57.70
77979;BME280;67169;50.268;8.694;2023-03-05T10:05:14;99689.91;;;3.97;57.80
77979;BME280;67169;50.268;8.694;2023-03-05T10:07:49;99687.09;;;4.08;58.79
77979;BME280;67169;50.268;8.694;2023-03-05T10:10:22;99680.88;;;4.10;56.80
77979;BME280;67169;50.268;8.694;2023-03-05T10:12:52;99684.47;;;4.06;57.20
77979;BME280;67169;50.268;8.694;2023-03-05T10:15:25;99669.34;;;4.10;57.85
77979;BME280;67169;50.268;8.694;2023-03-05T10:18:06;99685.41;;;4.02;57.88
77979;BME280;67169;50.268;8.694;2023-03-05T10:20:48;99678.19;;;4.13;58.37
77979;BME280;67169;50.268;8.694;2023-03-05T10:23:49;99671.81;;;4.23;58.31
77979;BME280;67169;50.268;8.694;2023-03-05T10:26:24;99662.13;;;4.18;58.96
77979;BME280;67169;50.268;8.694;2023-03-05T10:29:00;99639.06;;;4.18;58.98
77979;BME280;67169;50.268;8.694;2023-03-05T10:31:39;99658.53;;;4.23;57.58
77979;BME280;67169;50.268;8.694;2023-03-05T10:34:21;99656.50;;;4.39;58.69
77979;BME280;67169;50.268;8.694;2023-03-05T10:37:05;99651.00;;;4.50;58.30
77979;BME280;67169;50.268;8.694;2023-03-05T10:39:46;99653.50;;;4.61;57.99
77979;BME280;67169;50.268;8.694;2023-03-05T10:42:24;99632.56;;;4.36;58.96
77979;BME280;67169;50.268;8.694;2023-03-05T10:44:55;99638.78;;;4.38;59.57
77979;BME280;67169;50.268;8.694;2023-03-05T10:47:26;99647.13;;;4.12;59.68
77979;BME280;67169;50.268;8.694;2023-03-05T10:49:55;99614.50;;;3.98;60.22
77979;BME280;67169;50.268;8.694;2023-03-05T10:52:27;99627.53;;;4.16;60.68
77979;BME280;67169;50.268;8.694;2023-03-05T10:54:56;99629.25;;;4.23;60.72
77979;BME280;67169;50.268;8.694;2023-03-05T10:57:24;99630.94;;;4.27;59.84
77979;BME280;67169;50.268;8.694;2023-03-05T10:59:53;99622.09;;;4.25;59.77
77979;BME280;67169;50.268;8.694;2023-03-05T11:02:24;99618.47;;;4.31;59.39
77979;BME280;67169;50.268;8.694;2023-03-05T11:04:51;99615.00;;;4.24;59.91
77979;BME280;67169;50.268;8.694;2023-03-05T11:07:34;99620.09;;;4.40;59.78
77979;BME280;67169;50.268;8.694;2023-03-05T11:10:05;99589.78;;;4.48;59.23
77979;BME280;67169;50.268;8.694;2023-03-05T11:12:34;99602.84;;;4.65;58.23
77979;BME280;67169;50.268;8.694;2023-03-05T11:15:04;99593.06;;;4.66;58.32
77979;BME280;67169;50.268;8.694;2023-03-05T11:17:34;99598.22;;;4.75;56.67
77979;BME280;67169;50.268;8.694;2023-03-05T11:20:29;99601.63;;;4.82;57.00
77979;BME280;67169;50.268;8.694;2023-03-05T11:23:02;99587.19;;;4.95;56.76
77979;BME280;67169;50.268;8.694;2023-03-05T11:25:30;99574.75;;;4.97;56.11
77979;BME280;67169;50.268;8.694;2023-03-05T11:27:58;99586.31;;;4.94;55.60
77979;BME280;67169;50.268;8.694;2023-03-05T11:30:27;99587.19;;;4.95;55.21
77979;BME280;67169;50.268;8.694;2023-03-05T11:33:14;99570.31;;;4.96;56.23
77979;BME280;67169;50.268;8.694;2023-03-05T11:35:43;99576.72;;;5.32;56.20
77979;BME280;67169;50.268;8.694;2023-03-05T11:38:15;99562.63;;;5.27;54.20
77979;BME280;67169;50.268;8.694;2023-03-05T11:40:42;99568.66;;;5.37;54.80
77979;BME280;67169;50.268;8.694;2023-03-05T11:43:14;99567.06;;;5.27;54.10
77979;BME280;67169;50.268;8.694;2023-03-05T11:45:41;99560.06;;;5.19;55.20
77979;BME280;67169;50.268;8.694;2023-03-05T11:48:15;99543.75;;;4.91;55.37
77979;BME280;67169;50.268;8.694;2023-03-05T11:50:46;99549.69;;;5.06;55.40
77979;BME280;67169;50.268;8.694;2023-03-05T11:53:19;99558.97;;;5.31;54.94
77979;BME280;67169;50.268;8.694;2023-03-05T11:55:48;99553.59;;;5.34;54.04
77979;BME280;67169;50.268;8.694;2023-03-05T11:58:25;99537.81;;;5.23;54.12
77979;BME280;67169;50.268;8.694;2023-03-05T12:00:54;99529.88;;;5.20;54.57
77979;BME280;67169;50.268;8.694;2023-03-05T12:03:25;99543.25;;;5.16;53.90
77979;BME280;67169;50.268;8.694;2023-03-05T12:05:56;99544.13;;;5.18;54.09
77979;BME280;67169;50.268;8.694;2023-03-05T12:08:29;99539.22;;;4.95;53.79
77979;BME280;67169;50.268;8.694;2023-03-05T12:11:00;99535.03;;;4.82;54.74
77979;BME280;67169;50.268;8.694;2023-03-05T12:13:33;99538.56;;;4.84;54.50
77979;BME280;67169;50.268;8.694;2023-03-05T12:16:12;99522.47;;;4.90;54.46
77979;BME280;67169;50.268;8.694;2023-03-05T12:18:49;99510.13;;;4.86;55.61
77979;BME280;67169;50.268;8.694;2023-03-05T12:21:26;99512.56;;;4.95;55.20
77979;BME280;67169;50.268;8.694;2023-03-05T12:23:58;99508.78;;;5.08;53.69
77979;BME280;67169;50.268;8.694;2023-03-05T12:26:53;99504.53;;;4.98;53.84
77979;BME280;67169;50.268;8.694;2023-03-05T12:29:27;99486.13;;;4.86;54.27
77979;BME280;67169;50.268;8.694;2023-03-05T12:31:54;99495.59;;;5.00;52.48
77979;BME280;67169;50.268;8.694;2023-03-05T12:34:45;99490.16;;;5.05;52.04
77979;BME280;67169;50.268;8.694;2023-03-05T12:37:14;99491.56;;;5.24;52.30
77979;BME280;67169;50.268;8.694;2023-03-05T12:40:01;99485.97;;;5.37;51.86
77979;BME280;67169;50.268;8.694;2023-03-05T12:42:43;99481.78;;;5.64;51.75
77979;BME280;67169;50.268;8.694;2023-03-05T12:45:27;99484.94;;;5.83;51.86
77979;BME280;67169;50.268;8.694;2023-03-05T12:50:59;99462.91;;;5.34;51.74
77979;BME280;67169;50.268;8.694;2023-03-05T12:53:26;99487.09;;;5.27;52.17
77979;BME280;67169;50.268;8.694;2023-03-05T12:56:00;99474.66;;;5.26;52.45
77979;BME280;67169;50.268;8.694;2023-03-05T12:58:34;99451.16;;;5.03;52.97
77979;BME280;67169;50.268;8.694;2023-03-05T13:01:18;99475.16;;;5.03;54.01
77979;BME280;67169;50.268;8.694;2023-03-05T13:03:52;99467.44;;;4.87;53.91
77979;BME280;67169;50.268;8.694;2023-03-05T13:06:26;99464.56;;;4.98;54.08
77979;BME280;67169;50.268;8.694;2023-03-05T13:08:58;99461.47;;;4.74;54.77
77979;BME280;67169;50.268;8.694;2023-03-05T13:11:27;99461.72;;;4.62;55.36
77979;BME280;67169;50.268;8.694;2023-03-05T13:13:56;99457.41;;;4.53;55.84
77979;BME280;67169;50.268;8.694;2023-03-05T13:16:25;99458.13;;;4.63;55.99
77979;BME280;67169;50.268;8.694;2023-03-05T13:18:55;99453.84;;;4.56;56.43
77979;BME280;67169;50.268;8.694;2023-03-05T13:21:25;99452.03;;;4.57;56.06
77979;BME280;67169;50.268;8.694;2023-03-05T13:23:54;99443.28;;;4.50;55.72
77979;BME280;67169;50.268;8.694;2023-03-05T13:26:24;99457.22;;;4.64;55.89
77979;BME280;67169;50.268;8.694;2023-03-05T13:29:10;99452.69;;;4.69;56.35
77979;BME280;67169;50.268;8.694;2023-03-05T13:31:41;99448.44;;;4.59;56.30
77979;BME280;67169;50.268;8.694;2023-03-05T13:34:15;99436.53;;;4.79;55.98
77979;BME280;67169;50.268;8.694;2023-03-05T13:36:47;99439.13;;;4.82;56.22
77979;BME280;67169;50.268;8.694;2023-03-05T13:39:21;99439.97;;;4.85;55.97
77979;BME280;67169;50.268;8.694;2023-03-05T13:41:56;99438.22;;;4.83;55.94
77979;BME280;67169;50.268;8.694;2023-03-05T13:44:23;99423.94;;;4.87;55.44
77979;BME280;67169;50.268;8.694;2023-03-05T13:46:50;99420.22;;;4.94;55.01
77979;BME280;67169;50.268;8.694;2023-03-05T13:49:25;99413.03;;;4.97;54.49
77979;BME280;67169;50.268;8.694;2023-03-05T13:51:55;99408.53;;;5.01;53.92
77979;BME280;67169;50.268;8.694;2023-03-05T13:54:25;99401.38;;;5.03;54.21
77979;BME280;67169;50.268;8.694;2023-03-05T13:56:53;99403.78;;;5.15;54.46
77979;BME280;67169;50.268;8.694;2023-03-05T13:59:22;99401.69;;;4.88;54.19
77979;BME280;67169;50.268;8.694;2023-03-05T14:01:50;99397.41;;;4.82;55.09
77979;BME280;67169;50.268;8.694;2023-03-05T14:04:21;99400.13;;;4.79;53.92
77979;BME280;67169;50.268;8.694;2023-03-05T14:06:50;99394.72;;;4.82;54.52
77979;BME280;67169;50.268;8.694;2023-03-05T14:09:21;99389.41;;;4.82;55.35
77979;BME280;67169;50.268;8.694;2023-03-05T14:11:53;99394.03;;;4.72;55.12
77979;BME280;67169;50.268;8.694;2023-03-05T14:14:21;99393.81;;;4.82;55.23
77979;BME280;67169;50.268;8.694;2023-03-05T14:16:48;99384.09;;;4.81;54.66
77979;BME280;67169;50.268;8.694;2023-03-05T14:19:32;99387.50;;;4.87;55.06
77979;BME280;67169;50.268;8.694;2023-03-05T15:35:08;99299.66;;;3.97;63.67
77979;BME280;67169;50.268;8.694;2023-03-05T15:37:35;99292.91;;;3.79;64.58
77979;BME280;67169;50.268;8.694;2023-03-05T15:40:01;99294.72;;;3.77;64.70
77979;BME280;67169;50.268;8.694;2023-03-05T15:42:28;99291.97;;;3.82;64.13
77979;BME280;67169;50.268;8.694;2023-03-05T15:44:54;99291.94;;;3.84;64.33
77979;BME280;67169;50.268;8.694;2023-03-05T15:47:21;99284.88;;;3.81;64.81
77979;BME280;67169;50.268;8.694;2023-03-05T15:49:47;99288.38;;;3.85;64.42
77979;BME280;67169;50.268;8.694;2023-03-05T15:52:15;99282.00;;;3.93;63.60
77979;BME280;67169;50.268;8.694;2023-03-05T15:54:42;99281.34;;;3.82;64.42
77979;BME280;67169;50.268;8.694;2023-03-05T15:57:09;99281.19;;;3.88;63.67
77979;BME280;67169;50.268;8.694;2023-03-05T15:59:36;99269.75;;;3.85;63.95
77979;BME280;67169;50.268;8.694;2023-03-05T16:02:03;99278.69;;;3.82;64.33
77979;BME280;67169;50.268;8.694;2023-03-05T16:04:30;99268.97;;;3.78;64.45
77979;BME280;67169;50.268;8.694;2023-03-05T16:06:58;99271.69;;;3.76;64.53
77979;BME280;67169;50.268;8.694;2023-03-05T16:09:31;99222.50;;;3.52;64.53
77979;BME280;67169;50.268;8.694;2023-03-05T16:12:00;99259.34;;;3.72;65.06
77979;BME280;67169;50.268;8.694;2023-03-05T16:14:27;99253.19;;;3.70;65.15
77979;BME280;67169;50.268;8.694;2023-03-05T16:16:55;99248.78;;;3.68;64.71
77979;BME280;67169;50.268;8.694;2023-03-05T16:19:24;99251.59;;;3.60;65.34
77979;BME280;67169;50.268;8.694;2023-03-05T16:21:51;99175.25;;;3.19;65.00
77979;BME280;67169;50.268;8.694;2023-03-05T16:24:17;99244.47;;;3.61;64.88
77979;BME280;67169;50.268;8.694;2023-03-05T16:26:45;99247.13;;;3.62;65.46
77979;BME280;67169;50.268;8.694;2023-03-05T16:29:12;99244.47;;;3.62;65.46
77979;BME280;67169;50.268;8.694;2023-03-05T16:31:39;99242.69;;;3.61;65.12
77979;BME280;67169;50.268;8.694;2023-03-05T16:34:07;99240.09;;;3.60;64.77
77979;BME280;67169;50.268;8.694;2023-03-05T16:36:33;99237.53;;;3.53;64.70
77979;BME280;67169;50.268;8.694;2023-03-05T16:39:01;99235.75;;;3.54;65.15
77979;BME280;67169;50.268;8.694;2023-03-05T16:41:29;99226.88;;;3.55;65.58
77979;BME280;67169;50.268;8.694;2023-03-05T16:43:57;99228.56;;;3.59;65.27
77979;BME280;67169;50.268;8.694;2023-03-05T16:46:25;99225.09;;;3.55;65.24
77979;BME280;67169;50.268;8.694;2023-03-05T16:48:52;99223.41;;;3.50;65.01
77979;BME280;67169;50.268;8.694;2023-03-05T16:51:19;99220.84;;;3.45;65.43
77979;BME280;67169;50.268;8.694;2023-03-05T16:53:46;99224.38;;;3.46;65.26
77979;BME280;67169;50.268;8.694;2023-03-05T16:56:13;99200.66;;;3.35;64.75
77979;BME280;67169;50.268;8.694;2023-03-05T16:58:40;99221.81;;;3.40;65.19
77979;BME280;67169;50.268;8.694;2023-03-05T17:01:09;99222.63;;;3.45;65.35
77979;BME280;67169;50.268;8.694;2023-03-05T17:03:36;99221.69;;;3.47;65.45
77979;BME280;67169;50.268;8.694;2023-03-05T17:06:09;99220.91;;;3.42;65.01
77979;BME280;67169;50.268;8.694;2023-03-05T17:08:36;99213.91;;;3.38;65.53
77979;BME280;67169;50.268;8.694;2023-03-05T17:11:03;99209.47;;;3.37;65.45
77979;BME280;67169;50.268;8.694;2023-03-05T17:13:29;99221.00;;;3.36;65.46
77979;BME280;67169;50.268;8.694;2023-03-05T17:15:56;99221.00;;;3.38;65.42
77979;BME280;67169;50.268;8.694;2023-03-05T17:18:24;99223.66;;;3.36;65.72
77979;BME280;67169;50.268;8.694;2023-03-05T17:20:51;99212.22;;;3.32;65.67
77979;BME280;67169;50.268;8.694;2023-03-05T17:23:18;99226.38;;;3.35;65.70
77979;BME280;67169;50.268;8.694;2023-03-05T17:25:45;99220.94;;;3.41;66.00
77979;BME280;67169;50.268;8.694;2023-03-05T17:28:26;99217.50;;;3.34;66.05
77979;BME280;67169;50.268;8.694;2023-03-05T17:30:53;99212.97;;;3.39;65.79
77979;BME280;67169;50.268;8.694;2023-03-05T17:33:20;99226.31;;;3.36;66.51
77979;BME280;67169;50.268;8.694;2023-03-05T17:35:48;99225.59;;;3.26;67.98
77979;BME280;67169;50.268;8.694;2023-03-05T17:38:14;99224.72;;;3.27;67.74
77979;BME280;67169;50.268;8.694;2023-03-05T17:40:42;99209.06;;;3.11;68.03
77979;BME280;67169;50.268;8.694;2023-03-05T17:43:09;99220.41;;;3.20;67.84
77979;BME280;67169;50.268;8.694;2023-03-05T17:45:36;99214.19;;;3.21;68.52
77979;BME280;67169;50.268;8.694;2023-03-05T17:48:03;99219.50;;;3.21;68.28
77979;BME280;67169;50.268;8.694;2023-03-05T17:50:30;99201.91;;;3.14;68.58
77979;BME280;67169;50.268;8.694;2023-03-05T17:53:00;99220.34;;;3.23;67.75
77979;BME280;67169;50.268;8.694;2023-03-05T17:55:26;99201.97;;;3.11;67.97
77979;BME280;67169;50.268;8.694;2023-03-05T17:57:53;99209.88;;;3.14;67.87
77979;BME280;67169;50.268;8.694;2023-03-05T18:00:21;99209.88;;;3.14;67.42
77979;BME280;67169;50.268;8.694;2023-03-05T18:02:48;99207.22;;;3.14;67.36
77979;BME280;67169;50.268;8.694;2023-03-05T18:05:15;99203.75;;;3.11;67.18
77979;BME280;67169;50.268;8.694;2023-03-05T18:07:42;99200.31;;;3.04;67.36
77979;BME280;67169;50.268;8.694;2023-03-05T18:10:12;99203.81;;;3.06;67.16
77979;BME280;67169;50.268;8.694;2023-03-05T18:12:39;99206.44;;;3.07;67.62
77979;BME280;67169;50.268;8.694;2023-03-05T18:15:09;99198.47;;;3.07;67.31
77979;BME280;67169;50.268;8.694;2023-03-05T18:17:36;99207.38;;;3.05;67.90
77979;BME280;67169;50.268;8.694;2023-03-05T18:20:04;99202.84;;;3.12;67.00
77979;BME280;67169;50.268;8.694;2023-03-05T18:22:31;99200.22;;;3.10;67.36
77979;BME280;67169;50.268;8.694;2023-03-05T18:24:58;99176.41;;;3.02;67.64
77979;BME280;67169;50.268;8.694;2023-03-05T18:27:25;99202.78;;;3.13;67.98
77979;BME280;67169;50.268;8.694;2023-03-05T18:29:52;99193.13;;;3.09;67.89
77979;BME280;67169;50.268;8.694;2023-03-05T18:32:20;99193.19;;;3.06;68.65
77979;BME280;67169;50.268;8.694;2023-03-05T18:34:48;99187.94;;;3.03;68.32
77979;BME280;67169;50.268;8.694;2023-03-05T18:37:15;99190.53;;;3.06;68.65
77979;BME280;67169;50.268;8.694;2023-03-05T18:39:42;99191.53;;;2.99;68.28
77979;BME280;67169;50.268;8.694;2023-03-05T18:42:11;99182.56;;;3.06;67.35
77979;BME280;67169;50.268;8.694;2023-03-05T18:44:40;99180.84;;;3.02;67.39
77979;BME280;67169;50.268;8.694;2023-03-05T18:47:07;99183.47;;;3.05;67.54
77979;BME280;67169;50.268;8.694;2023-03-05T18:49:35;99179.06;;;3.04;67.66
77979;BME280;67169;50.268;8.694;2023-03-05T18:52:03;99174.59;;;3.06;67.56
77979;BME280;67169;50.268;8.694;2023-03-05T18:54:30;99163.19;;;3.01;67.17
77979;BME280;67169;50.268;8.694;2023-03-05T18:56:58;99165.59;;;3.15;67.01
77979;BME280;67169;50.268;8.694;2023-03-05T18:59:24;99167.38;;;3.14;66.98
77979;BME280;67169;50.268;8.694;2023-03-05T19:01:52;99170.91;;;3.15;66.87
77979;BME280;67169;50.268;8.694;2023-03-05T19:04:19;99167.44;;;3.11;66.94
77979;BME280;67169;50.268;8.694;2023-03-05T19:06:45;99166.56;;;3.11;66.94
77979;BME280;67169;50.268;8.694;2023-03-05T19:09:13;99163.03;;;3.08;66.83
77979;BME280;67169;50.268;8.694;2023-03-05T19:11:47;99174.47;;;3.12;67.02
77979;BME280;67169;50.268;8.694;2023-03-05T19:14:14;99164.72;;;3.14;66.65
77979;BME280;67169;50.268;8.694;2023-03-05T19:16:42;99164.78;;;3.09;67.49
77979;BME280;67169;50.268;8.694;2023-03-05T19:19:11;99099.03;;;2.73;67.07
77979;BME280;67169;50.268;8.694;2023-03-05T19:21:41;99156.81;;;3.09;67.46
77979;BME280;67169;50.268;8.694;2023-03-05T19:24:08;99139.38;;;2.95;66.96
77979;BME280;67169;50.268;8.694;2023-03-05T19:26:35;99161.25;;;3.09;66.94
77979;BME280;67169;50.268;8.694;2023-03-05T19:29:01;99156.91;;;3.05;66.91
77979;BME280;67169;50.268;8.694;2023-03-05T19:31:28;99151.56;;;3.06;66.62
77979;BME280;67169;50.268;8.694;2023-03-05T19:33:54;99152.50;;;3.04;66.52
77979;BME280;67169;50.268;8.694;2023-03-05T19:36:22;99148.88;;;3.08;66.49
77979;BME280;67169;50.268;8.694;2023-03-05T19:38:49;99147.13;;;3.07;66.28
77979;BME280;67169;50.268;8.694;2023-03-05T19:41:15;99101.59;;;2.77;66.37
77979;BME280;67169;50.268;8.694;2023-03-05T19:43:43;99138.31;;;3.05;66.78
77979;BME280;67169;50.268;8.694;2023-03-05T19:46:10;99137.38;;;3.07;66.39
77979;BME280;67169;50.268;8.694;2023-03-05T19:48:37;99124.19;;;3.03;66.32
77979;BME280;67169;50.268;8.694;2023-03-05T19:51:08;99141.78;;;3.08;66.69
77979;BME280;67169;50.268;8.694;2023-03-05T19:53:37;99133.88;;;3.05;66.31
77979;BME280;67169;50.268;8.694;2023-03-05T19:56:04;99133.03;;;3.02;66.99
77979;BME280;67169;50.268;8.694;2023-03-05T19:58:31;99096.34;;;2.74;67.10
77979;BME280;67169;50.268;8.694;2023-03-05T20:01:06;99130.50;;;2.96;67.71
77979;BME280;67169;50.268;8.694;2023-03-05T20:03:33;99125.22;;;2.94;67.92
77979;BME280;67169;50.268;8.694;2023-03-05T20:06:00;99124.34;;;2.92;67.74
77979;BME280;67169;50.268;8.694;2023-03-05T20:08:26;99118.16;;;2.93;67.94
77979;BME280;67169;50.268;8.694;2023-03-05T20:10:54;99123.53;;;2.90;67.76
77979;BME280;67169;50.268;8.694;2023-03-05T20:13:20;99126.13;;;2.93;67.01
77979;BME280;67169;50.268;8.694;2023-03-05T20:15:47;99118.94;;;3.00;67.08
77979;BME280;67169;50.268;8.694;2023-03-05T20:18:13;99115.41;;;2.98;66.87
77979;BME280;67169;50.268;8.694;2023-03-05T20:20:39;99101.34;;;2.93;66.56
77979;BME280;67169;50.268;8.694;2023-03-05T20:23:06;99105.72;;;2.95;67.04
77979;BME280;67169;50.268;8.694;2023-03-05T20:25:32;99114.28;;;3.11;65.96
77979;BME280;67169;50.268;8.694;2023-03-05T20:28:00;99106.38;;;3.08;66.20
77979;BME280;67169;50.268;8.694;2023-03-05T20:30:27;99106.38;;;3.08;65.98
77979;BME280;67169;50.268;8.694;2023-03-05T20:32:53;99108.06;;;3.12;66.10
77979;BME280;67169;50.268;8.694;2023-03-05T20:35:20;99112.50;;;3.12;65.89
77979;BME280;67169;50.268;8.694;2023-03-05T20:37:46;99111.63;;;3.11;66.43
77979;BME280;67169;50.268;8.694;2023-03-05T20:40:24;99101.22;;;2.99;66.39
77979;BME280;67169;50.268;8.694;2023-03-05T20:42:50;99105.56;;;3.04;66.67
77979;BME280;67169;50.268;8.694;2023-03-05T20:45:18;99105.59;;;3.01;66.88
77979;BME280;67169;50.268;8.694;2023-03-05T20:47:45;98999.63;;;2.40;66.66
77979;BME280;67169;50.268;8.694;2023-03-05T20:50:13;99098.59;;;2.97;67.04
77979;BME280;67169;50.268;8.694;2023-03-05T20:52:40;99099.38;;;3.04;67.37
77979;BME280;67169;50.268;8.694;2023-03-05T20:55:08;99090.47;;;3.05;67.62
77979;BME280;67169;50.268;8.694;2023-03-05T20:57:35;99090.44;;;3.08;67.26